Time;durP1;ratioP1;P1;durP2;ratioP2;P2;SDS_P1;SDS_P2;PMS_P1;PMS_P2;Temp;Humidity;BMP_temperature;BMP_pressure;BME280_temperature;BME280_humidity;BME280_pressure;Samples;Min_cycle;Max_cycle;Signal;HPM_P1;HPM_P2
2023/12/13 00:01:12;;;;;;;2.20;1.03;;;13.90;91.40;;;;;;5135390;27;20476;-65
2023/12/13 00:03:39;;;;;;;2.53;0.90;;;13.90;91.50;;;;;;5136220;27;20477;-66
2023/12/13 00:06:06;;;;;;;3.37;1.00;;;13.80;91.40;;;;;;5096535;27;20472;-66
2023/12/13 00:08:33;;;;;;;2.30;1.03;;;13.80;91.60;;;;;;5152919;27;20822;-66
2023/12/13 00:11:00;;;;;;;2.33;1.27;;;13.80;91.40;;;;;;5152065;27;20446;-65
2023/12/13 00:13:27;;;;;;;4.13;1.90;;;13.70;91.30;;;;;;5144272;27;20765;-65
2023/12/13 00:15:55;;;;;;;2.07;1.83;;;13.50;91.60;;;;;;5135313;27;20468;-64
2023/12/13 00:18:22;;;;;;;3.37;1.80;;;13.60;91.50;;;;;;5143195;27;20437;-65
2023/12/13 00:20:49;;;;;;;2.53;1.87;;;13.70;91.30;;;;;;5134727;27;20436;-65
2023/12/13 00:23:16;;;;;;;4.60;1.90;;;13.60;91.30;;;;;;5137787;27;21005;-66
2023/12/13 00:25:42;;;;;;;3.87;1.77;;;13.70;91.40;;;;;;5128012;27;20473;-64
2023/12/13 00:28:09;;;;;;;3.33;1.07;;;13.80;91.00;;;;;;5152195;27;20444;-64
2023/12/13 00:30:36;;;;;;;1.00;0.87;;;13.70;91.10;;;;;;5153112;27;20444;-64
2023/12/13 00:33:05;;;;;;;3.23;1.50;;;13.70;90.90;;;;;;5146868;27;20490;-64
2023/12/13 00:35:33;;;;;;;1.57;0.87;;;13.60;91.10;;;;;;5143422;27;20468;-65
2023/12/13 00:38:00;;;;;;;2.67;1.37;;;13.70;91.00;;;;;;5151789;27;20439;-66
2023/12/13 00:40:26;;;;;;;2.50;1.33;;;13.70;91.10;;;;;;5148416;27;20458;-65
2023/12/13 00:42:54;;;;;;;2.00;1.30;;;13.60;90.90;;;;;;5135159;27;20810;-64
2023/12/13 00:45:21;;;;;;;3.07;1.20;;;13.50;90.80;;;;;;5137966;27;20446;-64
2023/12/13 00:47:48;;;;;;;3.47;1.17;;;13.60;91.20;;;;;;5140298;27;20447;-64
2023/12/13 00:50:16;;;;;;;2.83;1.00;;;13.80;91.20;;;;;;5155407;27;20437;-66
2023/12/13 00:52:43;;;;;;;1.83;1.00;;;13.90;91.30;;;;;;5147717;27;20436;-66
2023/12/13 00:55:13;;;;;;;1.60;0.90;;;14.00;91.40;;;;;;5144233;27;20436;-65
2023/12/13 00:57:40;;;;;;;2.13;1.20;;;14.10;91.50;;;;;;5154379;27;20978;-64
2023/12/13 01:00:09;;;;;;;2.07;1.20;;;14.00;91.10;;;;;;5153486;27;20436;-64
2023/12/13 01:02:36;;;;;;;2.87;1.07;;;13.80;90.80;;;;;;5144829;27;20909;-64
2023/12/13 01:05:03;;;;;;;2.80;1.20;;;13.60;91.30;;;;;;5144244;27;20499;-65
2023/12/13 01:07:31;;;;;;;4.00;1.50;;;13.70;91.70;;;;;;5138013;27;20445;-64
2023/12/13 01:09:59;;;;;;;2.63;1.40;;;13.70;91.80;;;;;;5135316;27;20527;-65
2023/12/13 01:12:26;;;;;;;2.10;1.23;;;13.60;91.90;;;;;;5134535;27;20456;-65
2023/12/13 01:14:53;;;;;;;3.83;2.20;;;13.50;91.90;;;;;;5098819;27;20820;-65
2023/12/13 01:17:20;;;;;;;2.17;1.10;;;13.50;92.00;;;;;;5147561;27;20439;-64
2023/12/13 01:19:47;;;;;;;2.27;1.20;;;13.50;91.90;;;;;;5137297;27;20448;-64
2023/12/13 01:22:14;;;;;;;2.60;1.17;;;13.50;92.00;;;;;;5142249;27;20444;-66
2023/12/13 01:24:42;;;;;;;2.27;1.33;;;13.40;91.90;;;;;;5163753;27;20474;-65
2023/12/13 01:27:09;;;;;;;4.37;1.27;;;13.40;92.10;;;;;;5154751;27;20459;-66
2023/12/13 01:29:36;;;;;;;2.07;1.00;;;13.40;92.00;;;;;;5139306;27;20522;-65
2023/12/13 01:32:03;;;;;;;2.53;0.93;;;13.50;92.00;;;;;;5150831;27;20534;-65
2023/12/13 01:34:31;;;;;;;2.10;0.90;;;13.50;91.90;;;;;;5150665;27;20470;-66
2023/12/13 01:37:01;;;;;;;2.47;0.93;;;13.60;91.70;;;;;;5152416;27;20446;-65
2023/12/13 01:39:28;;;;;;;2.17;1.00;;;13.60;91.70;;;;;;5146550;27;20442;-64
2023/12/13 01:41:57;;;;;;;1.67;0.80;;;13.60;91.70;;;;;;5147897;27;20521;-66
2023/12/13 01:44:24;;;;;;;1.87;1.30;;;13.60;91.60;;;;;;5148560;27;20472;-65
2023/12/13 01:46:51;;;;;;;2.20;1.00;;;13.60;91.60;;;;;;5100649;27;20892;-64
2023/12/13 01:49:19;;;;;;;2.30;0.90;;;13.70;91.80;;;;;;5138241;27;20445;-66
2023/12/13 01:51:46;;;;;;;3.23;0.90;;;13.70;91.50;;;;;;5134224;27;20432;-65
2023/12/13 01:54:15;;;;;;;1.60;0.80;;;13.70;91.50;;;;;;5136580;27;20985;-64
2023/12/13 01:56:44;;;;;;;3.23;1.10;;;13.60;92.00;;;;;;5142712;27;20973;-64
2023/12/13 01:59:13;;;;;;;3.87;1.30;;;13.50;91.60;;;;;;5152859;27;20920;-66
2023/12/13 02:01:43;;;;;;;2.90;0.90;;;13.50;91.70;;;;;;5151112;27;20448;-64
2023/12/13 02:04:14;;;;;;;3.20;1.20;;;13.50;91.80;;;;;;5140285;27;20484;-65
2023/12/13 02:06:42;;;;;;;1.67;0.97;;;13.50;91.80;;;;;;5151432;27;20436;-65
2023/12/13 02:09:09;;;;;;;3.07;0.80;;;13.40;91.80;;;;;;5150755;27;20447;-66
2023/12/13 02:11:36;;;;;;;2.53;0.83;;;13.40;91.90;;;;;;5153351;27;20472;-65
2023/12/13 02:14:04;;;;;;;1.83;1.00;;;13.30;91.90;;;;;;5144499;27;20842;-65
2023/12/13 02:16:34;;;;;;;2.40;0.90;;;13.40;92.00;;;;;;5144735;27;20436;-64
2023/12/13 02:19:01;;;;;;;2.43;0.87;;;13.40;92.00;;;;;;5132838;27;20508;-66
2023/12/13 02:21:28;;;;;;;1.50;0.80;;;13.40;92.00;;;;;;5133042;27;20437;-65
2023/12/13 02:23:59;;;;;;;1.63;0.73;;;13.40;91.70;;;;;;5137023;27;20477;-64
2023/12/13 02:26:26;;;;;;;1.80;1.00;;;13.30;92.10;;;;;;5148782;27;20939;-66
2023/12/13 02:28:54;;;;;;;0.60;0.60;;;13.40;91.90;;;;;;5140991;27;20524;-65
2023/12/13 02:31:23;;;;;;;0.80;0.80;;;13.40;91.60;;;;;;5133807;27;20444;-65
2023/12/13 02:33:53;;;;;;;1.30;0.80;;;13.40;91.50;;;;;;5132760;27;20432;-64
2023/12/13 02:36:19;;;;;;;3.23;1.13;;;13.40;91.50;;;;;;5132175;27;20465;-65
2023/12/13 02:38:46;;;;;;;2.10;0.77;;;13.40;91.80;;;;;;5140947;27;20448;-66
2023/12/13 02:41:14;;;;;;;0.77;0.63;;;13.40;91.40;;;;;;5152606;27;20442;-64
2023/12/13 02:43:41;;;;;;;1.00;0.70;;;13.50;91.40;;;;;;5140714;27;20439;-65
2023/12/13 02:46:08;;;;;;;1.03;0.60;;;13.30;91.10;;;;;;5149496;27;20440;-64
2023/12/13 02:48:35;;;;;;;2.40;1.03;;;13.30;91.30;;;;;;5144795;27;20445;-65
2023/12/13 02:51:03;;;;;;;1.57;0.80;;;13.30;91.30;;;;;;5139031;27;20437;-66
2023/12/13 02:53:29;;;;;;;0.90;0.70;;;13.40;91.20;;;;;;5132426;27;20448;-65
2023/12/13 02:55:56;;;;;;;0.90;0.80;;;13.30;91.20;;;;;;5134080;27;20447;-64
2023/12/13 02:58:24;;;;;;;1.70;0.70;;;13.40;91.20;;;;;;5133840;27;20445;-64
2023/12/13 03:00:51;;;;;;;1.07;0.50;;;13.40;91.20;;;;;;5115201;28;20445;-67
2023/12/13 03:03:18;;;;;;;0.80;0.63;;;13.40;91.10;;;;;;5139085;27;20818;-64
2023/12/13 03:05:45;;;;;;;2.20;0.70;;;13.40;91.10;;;;;;5156999;27;20487;-65
2023/12/13 03:08:15;;;;;;;2.53;1.00;;;13.40;91.10;;;;;;5139786;27;20447;-64
2023/12/13 03:10:42;;;;;;;2.30;0.80;;;13.40;91.10;;;;;;5135645;27;20440;-64
2023/12/13 03:13:10;;;;;;;2.33;0.67;;;13.40;91.20;;;;;;5139512;27;20447;-65
2023/12/13 03:15:39;;;;;;;1.97;0.80;;;13.40;91.10;;;;;;5150980;27;20439;-66
2023/12/13 03:18:05;;;;;;;1.83;1.00;;;13.50;91.20;;;;;;5135109;27;20451;-64
2023/12/13 03:20:32;;;;;;;1.30;0.70;;;13.50;91.20;;;;;;5150668;27;20489;-64
2023/12/13 03:22:59;;;;;;;1.60;0.80;;;13.50;91.10;;;;;;5150169;27;20446;-65
2023/12/13 03:25:26;;;;;;;1.00;0.60;;;13.50;91.10;;;;;;5147875;27;20475;-64
2023/12/13 03:27:52;;;;;;;0.93;0.90;;;13.50;91.10;;;;;;5152304;27;20580;-65
2023/12/13 03:30:19;;;;;;;3.20;1.00;;;13.50;91.20;;;;;;5150884;27;20436;-64
2023/12/13 03:32:50;;;;;;;3.13;0.93;;;13.40;91.50;;;;;;5137836;27;20445;-65
2023/12/13 03:35:17;;;;;;;3.43;0.90;;;13.40;91.40;;;;;;5142528;27;20460;-65
2023/12/13 03:37:43;;;;;;;1.30;0.77;;;13.40;91.40;;;;;;5152552;27;20440;-65
2023/12/13 03:40:11;;;;;;;2.77;1.33;;;13.40;91.30;;;;;;5105886;27;20519;-65
2023/12/13 03:42:38;;;;;;;1.73;0.90;;;13.50;91.30;;;;;;5145368;27;20535;-65
2023/12/13 03:45:06;;;;;;;1.47;0.77;;;13.60;91.20;;;;;;5140248;27;20479;-64
2023/12/13 03:47:33;;;;;;;1.60;0.73;;;13.60;91.00;;;;;;5153450;27;20435;-65
2023/12/13 03:50:01;;;;;;;1.57;0.87;;;13.70;91.00;;;;;;5135693;27;20440;-64
2023/12/13 03:52:28;;;;;;;2.17;0.80;;;13.70;90.90;;;;;;5135683;27;20437;-65
2023/12/13 03:54:55;;;;;;;1.13;0.80;;;13.70;90.90;;;;;;5136757;27;20443;-66
2023/12/13 03:57:21;;;;;;;1.53;0.70;;;13.60;91.00;;;;;;5146858;27;20446;-66
2023/12/13 03:59:48;;;;;;;1.63;0.77;;;13.50;91.10;;;;;;5145252;27;20469;-66
2023/12/13 04:02:15;;;;;;;2.53;0.70;;;13.60;91.10;;;;;;5153386;27;20442;-66
2023/12/13 04:04:42;;;;;;;3.07;1.10;;;13.60;91.10;;;;;;5151470;27;20482;-66
2023/12/13 04:07:11;;;;;;;2.17;1.20;;;13.60;91.10;;;;;;5141712;27;20451;-66
2023/12/13 04:09:38;;;;;;;2.40;0.70;;;13.60;91.10;;;;;;5142327;27;20447;-66
2023/12/13 04:12:05;;;;;;;2.50;0.67;;;13.60;91.00;;;;;;5146429;27;20551;-65
2023/12/13 04:14:32;;;;;;;1.50;0.70;;;13.60;91.00;;;;;;5154726;27;20463;-65
2023/12/13 04:16:59;;;;;;;1.30;0.60;;;13.60;90.80;;;;;;5152926;27;20957;-65
2023/12/13 04:19:26;;;;;;;0.83;0.70;;;13.60;90.80;;;;;;5155626;27;20447;-65
2023/12/13 04:21:53;;;;;;;1.90;0.90;;;13.60;90.70;;;;;;5137457;27;20491;-65
2023/12/13 04:24:21;;;;;;;1.23;0.70;;;13.60;90.70;;;;;;5135058;27;20482;-65
2023/12/13 04:26:48;;;;;;;1.70;0.87;;;13.60;90.70;;;;;;5138060;27;20448;-66
2023/12/13 04:29:15;;;;;;;2.23;0.83;;;13.60;90.70;;;;;;5136696;27;20789;-65
2023/12/13 04:31:42;;;;;;;1.00;0.90;;;13.60;90.70;;;;;;5154669;27;20458;-65
2023/12/13 04:34:09;;;;;;;0.90;0.90;;;13.60;90.70;;;;;;5148124;27;20440;-66
2023/12/13 04:36:36;;;;;;;1.93;1.23;;;13.60;90.60;;;;;;5144309;27;20471;-65
2023/12/13 04:39:03;;;;;;;3.10;0.80;;;13.50;90.70;;;;;;5155618;27;20435;-64
2023/12/13 04:41:32;;;;;;;1.80;0.77;;;13.50;90.70;;;;;;5151183;27;20440;-64
2023/12/13 04:43:59;;;;;;;0.93;0.60;;;13.50;90.80;;;;;;5147860;27;20471;-65
2023/12/13 04:46:26;;;;;;;3.87;0.80;;;13.50;90.80;;;;;;5150873;27;20584;-64
2023/12/13 04:48:53;;;;;;;2.20;0.70;;;13.50;90.70;;;;;;5139176;27;20447;-64
2023/12/13 04:51:20;;;;;;;3.07;0.70;;;13.50;90.70;;;;;;5134761;27;20842;-65
2023/12/13 04:53:47;;;;;;;0.83;0.63;;;13.60;90.70;;;;;;5145946;27;20443;-64
2023/12/13 04:56:13;;;;;;;0.97;0.70;;;13.50;90.60;;;;;;5148218;27;20439;-65
2023/12/13 04:58:42;;;;;;;0.63;0.40;;;13.60;90.60;;;;;;5140778;27;20467;-64
2023/12/13 05:01:10;;;;;;;1.13;0.87;;;13.60;90.60;;;;;;5137072;27;20807;-64
2023/12/13 05:03:37;;;;;;;1.27;0.70;;;13.60;90.60;;;;;;5138230;27;20781;-63
2023/12/13 05:06:04;;;;;;;1.03;0.60;;;13.60;90.60;;;;;;5137579;27;20493;-65
2023/12/13 05:08:33;;;;;;;3.13;0.80;;;13.60;90.50;;;;;;5145270;27;20440;-63
2023/12/13 05:11:00;;;;;;;1.20;0.80;;;13.60;90.60;;;;;;5137998;27;20443;-64
2023/12/13 05:13:27;;;;;;;0.80;0.70;;;13.60;90.60;;;;;;5142754;27;21065;-64
2023/12/13 05:15:55;;;;;;;1.50;0.73;;;13.50;90.60;;;;;;5140266;27;20448;-66
2023/12/13 05:18:22;;;;;;;1.00;0.67;;;13.60;90.60;;;;;;5135448;27;20440;-64
2023/12/13 05:20:49;;;;;;;1.67;0.70;;;13.60;90.70;;;;;;5134098;27;20555;-65
2023/12/13 05:23:16;;;;;;;0.97;0.60;;;13.50;90.60;;;;;;5141426;27;20455;-64
2023/12/13 05:25:43;;;;;;;2.47;0.87;;;13.60;90.60;;;;;;5143775;27;21012;-64
2023/12/13 05:28:10;;;;;;;1.77;1.07;;;13.60;90.50;;;;;;5154078;27;20817;-64
2023/12/13 05:30:37;;;;;;;0.87;0.77;;;13.60;90.60;;;;;;5154090;27;20945;-64
2023/12/13 05:33:05;;;;;;;1.20;0.83;;;13.60;90.60;;;;;;5144577;27;20808;-64
2023/12/13 05:35:32;;;;;;;1.60;1.00;;;13.60;90.70;;;;;;5141579;27;20460;-64
2023/12/13 05:38:00;;;;;;;1.53;1.07;;;13.60;90.60;;;;;;5139834;27;20452;-64
2023/12/13 05:40:27;;;;;;;2.00;0.90;;;13.60;90.60;;;;;;5143651;27;20523;-65
2023/12/13 05:42:55;;;;;;;0.80;0.77;;;13.60;90.60;;;;;;5151192;27;20456;-64
2023/12/13 05:45:22;;;;;;;1.87;0.83;;;13.60;90.60;;;;;;5133800;27;20478;-66
2023/12/13 05:47:48;;;;;;;0.70;0.70;;;13.60;90.70;;;;;;5141437;27;20438;-64
2023/12/13 05:50:17;;;;;;;1.77;0.90;;;13.50;90.60;;;;;;5147276;27;20452;-64
2023/12/13 05:52:44;;;;;;;1.60;0.93;;;13.60;90.60;;;;;;5140977;27;20440;-64
2023/12/13 05:55:11;;;;;;;2.30;1.53;;;13.60;90.60;;;;;;5136940;27;20465;-64
2023/12/13 05:57:38;;;;;;;1.87;1.00;;;13.60;90.60;;;;;;5143184;27;20437;-64
2023/12/13 06:00:07;;;;;;;0.60;0.60;;;13.60;90.60;;;;;;5131800;27;20454;-65
2023/12/13 06:02:35;;;;;;;1.50;0.80;;;13.60;90.60;;;;;;5136813;27;21044;-65
2023/12/13 06:05:02;;;;;;;1.30;0.73;;;13.60;90.60;;;;;;5146530;27;20480;-63
2023/12/13 06:07:30;;;;;;;1.83;1.00;;;13.60;90.60;;;;;;5131736;27;20839;-63
2023/12/13 06:09:57;;;;;;;2.60;1.10;;;13.60;90.60;;;;;;5131681;27;20470;-64
2023/12/13 06:12:24;;;;;;;1.13;1.10;;;13.60;90.50;;;;;;5145393;27;20550;-64
2023/12/13 06:14:51;;;;;;;1.93;1.20;;;13.60;90.60;;;;;;5149288;27;20451;-64
2023/12/13 06:17:18;;;;;;;1.37;1.20;;;13.60;90.60;;;;;;5153222;27;20532;-64
2023/12/13 06:19:45;;;;;;;1.50;1.30;;;13.50;90.50;;;;;;5153381;27;20539;-64
2023/12/13 06:22:12;;;;;;;2.53;1.93;;;13.60;90.50;;;;;;5146491;27;20437;-64
2023/12/13 06:24:40;;;;;;;1.60;1.30;;;13.50;90.50;;;;;;5131994;27;20559;-64
2023/12/13 06:27:07;;;;;;;1.70;1.33;;;13.50;90.50;;;;;;5132027;27;20451;-63
2023/12/13 06:29:33;;;;;;;1.20;1.10;;;13.50;90.50;;;;;;5132431;27;20546;-63
2023/12/13 06:32:00;;;;;;;1.90;1.73;;;13.50;90.50;;;;;;5132481;27;20464;-64
2023/12/13 06:34:27;;;;;;;1.90;1.77;;;13.50;90.50;;;;;;5132282;27;21040;-64
2023/12/13 06:36:54;;;;;;;1.73;1.50;;;13.50;90.50;;;;;;5132905;27;20440;-64
2023/12/13 06:39:21;;;;;;;2.77;1.70;;;13.50;90.50;;;;;;5132050;27;20964;-64
2023/12/13 06:41:49;;;;;;;2.13;1.40;;;13.50;90.50;;;;;;5131550;27;20470;-63
2023/12/13 06:44:16;;;;;;;2.10;1.80;;;13.50;90.60;;;;;;5142216;27;20455;-65
2023/12/13 06:46:43;;;;;;;3.07;1.60;;;13.50;90.60;;;;;;5135414;27;20480;-66
2023/12/13 06:49:10;;;;;;;4.30;1.87;;;13.50;90.60;;;;;;5132274;28;20535;-66
2023/12/13 06:51:37;;;;;;;2.37;1.70;;;13.50;90.50;;;;;;5131753;28;20446;-65
2023/12/13 06:54:04;;;;;;;2.67;1.87;;;13.50;90.50;;;;;;5133830;27;20963;-65
2023/12/13 06:56:31;;;;;;;2.03;1.83;;;13.50;90.50;;;;;;5137268;27;20433;-64
2023/12/13 06:59:00;;;;;;;2.10;1.90;;;13.50;90.50;;;;;;5132090;27;20447;-64
2023/12/13 07:01:26;;;;;;;2.47;2.13;;;13.50;90.40;;;;;;5140719;27;20508;-64
2023/12/13 07:03:53;;;;;;;3.10;2.63;;;13.40;90.40;;;;;;5152995;27;20526;-65
2023/12/13 07:06:22;;;;;;;4.30;3.90;;;13.40;90.40;;;;;;5139241;27;20852;-65
2023/12/13 07:08:49;;;;;;;4.57;3.60;;;13.40;90.50;;;;;;5132644;28;20468;-65
2023/12/13 07:11:16;;;;;;;5.33;4.10;;;13.40;90.60;;;;;;5133110;27;20447;-66
2023/12/13 07:13:43;;;;;;;5.07;4.57;;;13.40;90.50;;;;;;5152385;27;20452;-64
2023/12/13 07:16:11;;;;;;;4.77;4.20;;;13.40;90.60;;;;;;5144359;27;20439;-65
2023/12/13 07:18:38;;;;;;;4.80;4.30;;;13.40;90.60;;;;;;5135602;27;20448;-65
2023/12/13 07:21:06;;;;;;;4.40;3.83;;;13.40;90.50;;;;;;5135599;27;20472;-65
2023/12/13 07:23:35;;;;;;;4.17;3.77;;;13.40;90.50;;;;;;5155155;27;20475;-65
2023/12/13 07:26:02;;;;;;;3.90;3.50;;;13.40;90.60;;;;;;5158501;27;20525;-65
2023/12/13 07:28:29;;;;;;;5.00;3.90;;;13.40;90.60;;;;;;5164624;27;20532;-66
2023/12/13 07:30:56;;;;;;;4.40;4.00;;;13.40;90.60;;;;;;5156729;27;20463;-65
2023/12/13 07:33:24;;;;;;;5.40;4.00;;;13.40;90.60;;;;;;5120222;27;20446;-65
2023/12/13 07:35:51;;;;;;;3.40;3.10;;;13.40;90.70;;;;;;5147597;27;20464;-65
2023/12/13 07:38:21;;;;;;;2.93;2.70;;;13.40;90.70;;;;;;5135348;27;20457;-65
2023/12/13 07:40:49;;;;;;;2.93;2.63;;;13.40;90.70;;;;;;5134641;27;20508;-65
2023/12/13 07:43:16;;;;;;;2.90;2.70;;;13.50;90.80;;;;;;5135162;27;20479;-65
2023/12/13 07:45:44;;;;;;;4.23;3.43;;;13.40;90.80;;;;;;5141359;27;20839;-65
2023/12/13 07:48:11;;;;;;;4.10;3.03;;;13.50;90.80;;;;;;5155685;27;20448;-65
2023/12/13 07:50:39;;;;;;;4.43;3.13;;;13.50;90.90;;;;;;5147315;27;20453;-64
2023/12/13 07:53:06;;;;;;;3.07;2.50;;;13.40;90.80;;;;;;5134319;27;20491;-65
2023/12/13 07:55:33;;;;;;;2.67;2.37;;;13.50;90.80;;;;;;5138891;27;20492;-65
2023/12/13 07:58:00;;;;;;;3.60;2.40;;;13.50;90.80;;;;;;5148540;27;20467;-65
2023/12/13 08:00:27;;;;;;;3.20;2.70;;;13.50;90.70;;;;;;5153971;27;20440;-66
2023/12/13 08:02:54;;;;;;;2.77;2.10;;;13.50;90.60;;;;;;5152822;27;20472;-66
2023/12/13 08:05:22;;;;;;;4.77;2.40;;;13.40;90.60;;;;;;5150008;27;20447;-64
2023/12/13 08:07:51;;;;;;;2.30;1.80;;;13.40;90.60;;;;;;5134963;27;20451;-66
2023/12/13 08:10:18;;;;;;;2.40;1.73;;;13.40;90.60;;;;;;5154366;27;20980;-65
2023/12/13 08:12:45;;;;;;;3.83;2.07;;;13.40;90.70;;;;;;5156156;27;20494;-65
2023/12/13 08:15:12;;;;;;;2.10;1.90;;;13.40;90.90;;;;;;5146127;27;20432;-65
2023/12/13 08:17:39;;;;;;;2.57;1.87;;;13.40;90.90;;;;;;5151485;27;20479;-65
2023/12/13 08:20:07;;;;;;;5.00;3.03;;;13.50;90.90;;;;;;5155943;27;20555;-64
2023/12/13 08:22:34;;;;;;;4.30;3.23;;;13.50;90.90;;;;;;5145418;27;20789;-65
2023/12/13 08:25:03;;;;;;;2.57;1.83;;;13.50;90.80;;;;;;5137341;27;20452;-65
2023/12/13 08:27:29;;;;;;;1.97;1.40;;;13.50;90.90;;;;;;5147230;27;20487;-65
2023/12/13 08:29:56;;;;;;;1.37;1.20;;;13.60;90.90;;;;;;5151031;27;20479;-64
2023/12/13 08:32:23;;;;;;;2.53;1.30;;;13.40;91.00;;;;;;5155752;27;20528;-66
2023/12/13 08:34:50;;;;;;;1.13;1.03;;;13.50;91.20;;;;;;5155895;27;20511;-64
2023/12/13 08:37:17;;;;;;;1.63;1.23;;;13.50;91.30;;;;;;5154011;27;20854;-65
2023/12/13 08:39:44;;;;;;;1.57;1.20;;;13.60;91.40;;;;;;5134605;27;20440;-64
2023/12/13 08:42:12;;;;;;;2.00;1.20;;;13.60;91.40;;;;;;5138746;27;20464;-66
2023/12/13 08:44:43;;;;;;;2.57;1.27;;;13.70;91.40;;;;;;5155176;27;20444;-64
2023/12/13 08:47:10;;;;;;;2.10;1.50;;;13.70;91.30;;;;;;5155493;27;20567;-65
2023/12/13 08:49:37;;;;;;;4.40;1.73;;;13.70;91.30;;;;;;5114998;27;20549;-65
2023/12/13 08:52:04;;;;;;;1.70;1.60;;;13.80;91.30;;;;;;5097447;27;20943;-65
2023/12/13 08:54:32;;;;;;;2.17;1.37;;;13.80;91.20;;;;;;5134572;27;20443;-64
2023/12/13 08:56:59;;;;;;;2.67;1.20;;;13.70;91.30;;;;;;5145449;27;20546;-65
2023/12/13 08:59:27;;;;;;;2.47;1.30;;;13.80;91.50;;;;;;5155354;27;20867;-65
2023/12/13 09:01:54;;;;;;;1.43;1.30;;;13.70;91.30;;;;;;5154697;27;20804;-64
2023/12/13 09:04:21;;;;;;;1.97;1.20;;;13.70;91.40;;;;;;5155360;27;20881;-64
2023/12/13 09:06:48;;;;;;;2.03;1.47;;;13.70;91.50;;;;;;5154994;27;20885;-64
2023/12/13 09:09:15;;;;;;;1.80;1.37;;;13.80;91.50;;;;;;5154863;27;20986;-64
2023/12/13 09:11:44;;;;;;;3.30;1.20;;;13.90;91.60;;;;;;5152307;27;20462;-66
2023/12/13 09:14:11;;;;;;;1.43;1.33;;;14.00;91.70;;;;;;5146451;27;20859;-66
2023/12/13 09:16:40;;;;;;;3.20;2.20;;;14.10;91.70;;;;;;5141893;27;20467;-65
2023/12/13 09:19:07;;;;;;;3.17;1.90;;;14.30;91.50;;;;;;5154124;27;20440;-65
2023/12/13 09:21:34;;;;;;;3.17;1.70;;;14.50;91.70;;;;;;5152722;27;20436;-65
2023/12/13 09:24:02;;;;;;;4.60;1.60;;;14.60;91.40;;;;;;5133842;27;20507;-67
2023/12/13 09:26:29;;;;;;;2.33;1.60;;;14.80;91.20;;;;;;5142713;27;20487;-65
2023/12/13 09:28:57;;;;;;;5.47;1.50;;;14.90;91.10;;;;;;5154356;27;20535;-65
2023/12/13 09:31:25;;;;;;;2.30;1.37;;;15.00;91.00;;;;;;5153890;27;20520;-64
2023/12/13 09:33:53;;;;;;;1.80;1.40;;;15.00;90.90;;;;;;5153201;27;20543;-65
2023/12/13 09:36:21;;;;;;;2.17;1.30;;;15.00;90.90;;;;;;5153787;27;21028;-64
2023/12/13 09:38:48;;;;;;;3.63;1.73;;;15.10;90.80;;;;;;5119870;27;20448;-66
2023/12/13 09:41:24;;;;;;;4.07;2.10;;;15.10;90.70;;;;;;5133163;27;20805;-68
2023/12/13 09:43:53;;;;;;;1.87;1.70;;;15.00;90.50;;;;;;5132833;27;20931;-65
2023/12/13 09:46:21;;;;;;;3.93;1.50;;;15.00;90.60;;;;;;5080538;27;20487;-65
2023/12/13 09:48:49;;;;;;;2.23;1.60;;;14.90;90.60;;;;;;5134586;27;20441;-66
2023/12/13 09:51:19;;;;;;;4.30;1.90;;;14.80;90.70;;;;;;5128146;27;20556;-65
2023/12/13 09:53:49;;;;;;;4.33;2.00;;;14.80;90.80;;;;;;5139005;27;20441;-65
2023/12/13 09:56:16;;;;;;;2.83;1.60;;;14.80;90.90;;;;;;5155482;27;20445;-65
2023/12/13 09:58:43;;;;;;;4.30;2.67;;;14.70;91.00;;;;;;5154815;27;20889;-64
2023/12/13 10:01:12;;;;;;;3.83;2.90;;;14.80;91.10;;;;;;5151760;27;20516;-65
2023/12/13 10:03:40;;;;;;;6.87;4.20;;;14.70;90.90;;;;;;5133585;27;20445;-65
2023/12/13 10:06:08;;;;;;;8.30;4.70;;;14.80;90.90;;;;;;5132681;27;20531;-66
2023/12/13 10:08:36;;;;;;;4.20;3.70;;;14.80;91.00;;;;;;5132691;27;20451;-65
2023/12/13 10:11:04;;;;;;;4.07;2.70;;;14.90;91.10;;;;;;5134911;27;20474;-66
2023/12/13 10:13:37;;;;;;;5.53;3.17;;;14.90;90.90;;;;;;5152434;27;20441;-65
2023/12/13 10:16:11;;;;;;;4.43;3.33;;;14.90;90.90;;;;;;5153150;27;20444;-66
2023/12/13 10:18:40;;;;;;;5.07;3.37;;;14.90;91.00;;;;;;5152871;27;20947;-65
2023/12/13 10:21:07;;;;;;;4.20;3.50;;;15.00;90.90;;;;;;5152497;27;20477;-66
2023/12/13 10:23:36;;;;;;;5.27;3.80;;;15.00;91.00;;;;;;5140979;27;20437;-67
2023/12/13 10:26:05;;;;;;;3.77;3.00;;;15.00;90.80;;;;;;5153088;27;20775;-65
2023/12/13 10:28:34;;;;;;;5.93;2.23;;;15.10;90.90;;;;;;5152877;27;20930;-65
2023/12/13 10:31:00;;;;;;;2.53;1.63;;;15.10;90.90;;;;;;5152560;27;20467;-65
2023/12/13 10:33:27;;;;;;;21.83;2.43;;;15.20;90.80;;;;;;5152900;27;20440;-66
2023/12/13 10:35:57;;;;;;;4.93;1.93;;;15.30;90.80;;;;;;5140036;27;20512;-65
2023/12/13 10:38:28;;;;;;;4.87;1.83;;;15.40;90.80;;;;;;5131949;27;20541;-65
2023/12/13 10:40:56;;;;;;;2.10;1.90;;;15.40;90.60;;;;;;5131858;27;20445;-66
2023/12/13 10:43:25;;;;;;;2.30;1.87;;;15.40;90.70;;;;;;5131784;27;20447;-65
2023/12/13 10:45:56;;;;;;;2.43;2.10;;;15.30;90.60;;;;;;5131880;27;20790;-65
2023/12/13 10:48:31;;;;;;;4.83;2.10;;;15.40;90.70;;;;;;5147556;27;20510;-65
2023/12/13 10:51:00;;;;;;;3.13;1.93;;;15.60;90.80;;;;;;5132058;28;20995;-65
2023/12/13 10:53:29;;;;;;;4.13;2.00;;;15.70;90.50;;;;;;5132450;28;20451;-65
2023/12/13 10:56:00;;;;;;;3.03;1.57;;;15.80;90.50;;;;;;5132075;28;20532;-65
2023/12/13 10:58:27;;;;;;;2.27;1.30;;;15.80;90.30;;;;;;5132750;27;20844;-66
2023/12/13 11:01:03;;;;;;;2.67;1.47;;;15.70;89.40;;;;;;5152840;27;20958;-65
2023/12/13 11:03:37;;;;;;;3.47;1.43;;;15.50;89.40;;;;;;5152722;27;20441;-64
2023/12/13 11:06:05;;;;;;;2.10;1.60;;;15.30;88.80;;;;;;5152781;27;20527;-65
2023/12/13 11:08:39;;;;;;;3.00;1.77;;;15.10;90.00;;;;;;5152809;27;20562;-65
2023/12/13 11:11:09;;;;;;;5.37;1.77;;;14.90;90.40;;;;;;5145063;27;20468;-65
2023/12/13 11:13:40;;;;;;;1.57;1.43;;;14.90;90.70;;;;;;5132126;28;20448;-66
2023/12/13 11:16:15;;;;;;;2.83;1.40;;;14.90;90.30;;;;;;5132002;28;20920;-65
2023/12/13 11:18:42;;;;;;;3.03;1.30;;;14.90;90.10;;;;;;5131650;28;21035;-66
2023/12/13 11:21:09;;;;;;;13.43;8.63;;;14.80;89.40;;;;;;5131751;28;20447;-66
2023/12/13 11:23:39;;;;;;;11.17;7.73;;;14.70;89.60;;;;;;5140883;27;20920;-65
2023/12/13 11:26:16;;;;;;;8.00;4.27;;;14.70;90.10;;;;;;5132106;28;20474;-66
2023/12/13 11:28:49;;;;;;;3.57;2.77;;;14.80;90.30;;;;;;5132142;28;20433;-66
2023/12/13 11:31:22;;;;;;;3.53;1.53;;;14.90;90.30;;;;;;5131679;28;20428;-67
2023/12/13 11:33:50;;;;;;;3.00;1.20;;;15.00;90.20;;;;;;5131852;28;20447;-66
2023/12/13 11:36:20;;;;;;;3.27;1.40;;;14.90;89.20;;;;;;5145525;27;20470;-65
2023/12/13 11:38:47;;;;;;;1.70;1.40;;;14.80;89.50;;;;;;5155185;27;20460;-67
2023/12/13 11:41:17;;;;;;;3.47;1.67;;;14.80;89.80;;;;;;5157599;27;20443;-65
2023/12/13 11:43:44;;;;;;;2.23;1.40;;;14.90;90.10;;;;;;5155113;27;21007;-65
2023/12/13 11:46:10;;;;;;;3.50;1.77;;;14.90;90.10;;;;;;5154110;27;20550;-65
2023/12/13 11:48:37;;;;;;;2.93;1.90;;;14.90;90.00;;;;;;5139144;27;20480;-66
2023/12/13 11:51:05;;;;;;;2.50;1.73;;;15.00;90.00;;;;;;5131983;28;20444;-65
2023/12/13 11:53:32;;;;;;;2.27;1.53;;;15.00;90.20;;;;;;5132498;28;20447;-65
2023/12/13 11:55:59;;;;;;;3.17;1.90;;;15.00;90.10;;;;;;5131690;27;20449;-65
2023/12/13 11:58:30;;;;;;;3.73;1.90;;;15.00;90.10;;;;;;5143350;27;20522;-65
2023/12/13 12:00:58;;;;;;;2.37;1.50;;;15.00;90.00;;;;;;5155825;27;20547;-66
2023/12/13 12:03:25;;;;;;;2.53;1.60;;;15.00;89.70;;;;;;5156021;27;20531;-65
2023/12/13 12:05:51;;;;;;;2.43;1.70;;;14.90;89.20;;;;;;5155810;27;20457;-65
2023/12/13 12:08:24;;;;;;;4.07;2.30;;;14.90;89.30;;;;;;5148059;27;20468;-66
2023/12/13 12:10:51;;;;;;;2.43;1.57;;;14.90;89.60;;;;;;5135128;27;20792;-65
2023/12/13 12:13:20;;;;;;;2.27;1.40;;;14.90;88.80;;;;;;5135315;27;20579;-65
2023/12/13 12:15:48;;;;;;;3.10;1.63;;;14.80;88.60;;;;;;5134877;27;20917;-67
2023/12/13 12:18:15;;;;;;;1.57;1.20;;;14.70;88.80;;;;;;5134861;27;20941;-66
2023/12/13 12:20:42;;;;;;;1.83;1.40;;;14.60;88.70;;;;;;5145652;27;20463;-66
2023/12/13 12:23:10;;;;;;;3.10;1.20;;;14.60;89.10;;;;;;5140554;27;20489;-65
2023/12/13 12:25:39;;;;;;;1.60;1.23;;;14.60;89.20;;;;;;5135061;27;20460;-66
2023/12/13 12:28:08;;;;;;;1.47;1.13;;;14.60;89.00;;;;;;5134839;27;20488;-66
2023/12/13 12:30:35;;;;;;;2.47;1.00;;;14.60;89.10;;;;;;5134151;27;20456;-65
2023/12/13 12:33:03;;;;;;;1.87;1.20;;;14.60;89.00;;;;;;5148127;27;20902;-65
2023/12/13 12:35:30;;;;;;;1.57;1.37;;;14.50;89.20;;;;;;5155323;27;20481;-66
2023/12/13 12:37:57;;;;;;;3.10;1.40;;;14.60;89.40;;;;;;5155263;27;20523;-65
2023/12/13 12:40:25;;;;;;;1.37;1.10;;;14.60;89.40;;;;;;5143937;27;20837;-67
2023/12/13 12:42:52;;;;;;;3.67;1.40;;;14.60;89.10;;;;;;5134777;27;20536;-65
2023/12/13 12:45:19;;;;;;;2.67;1.10;;;14.70;88.90;;;;;;5134055;27;20994;-66
2023/12/13 12:47:46;;;;;;;2.80;1.40;;;14.70;88.70;;;;;;5097423;27;20488;-65